Time;durP1;ratioP1;P1;durP2;ratioP2;P2;SDS_P1;SDS_P2;PMS_P1;PMS_P2;Temp;Humidity;BMP_temperature;BMP_pressure;BME280_temperature;BME280_humidity;BME280_pressure;Samples;Min_cycle;Max_cycle;Signal;HPM_P1;HPM_P2
2021/08/18 00:00:08;;;;;;;;;;;18.50;80.90;18.50;100018.00;;;;342067;28;82602;-90
2021/08/18 00:00:20;;;;;;;;;;;18.50;80.90;18.60;100028.00;;;;342965;28;90318;-90
2021/08/18 00:00:32;;;;;;;;;;;18.50;80.80;18.60;100024.00;;;;343549;28;82539;-90
2021/08/18 00:00:45;;;;;;;;;;;18.50;80.80;18.60;100026.00;;;;342814;28;91783;-91
2021/08/18 00:00:57;;;;;;;;;;;18.50;80.80;18.60;100025.00;;;;344737;28;82477;-90
2021/08/18 00:01:09;;;;;;;;;;;18.50;80.80;18.60;100027.00;;;;343100;28;90764;-91
2021/08/18 00:01:21;;;;;;;;;;;18.50;80.80;18.60;100031.00;;;;343370;28;83354;-90
2021/08/18 00:01:33;;;;;;;;;;;18.50;80.70;18.60;100014.00;;;;342889;28;90930;-90
2021/08/18 00:01:47;;;;;;;;;;;18.50;80.80;18.60;100026.00;;;;343481;28;82521;-91
2021/08/18 00:01:59;;;;;;;;;;;18.50;81.10;18.60;100015.00;;;;341007;28;92698;-90
2021/08/18 00:02:11;;;;;;;;;;;18.50;81.20;18.60;100018.00;;;;340955;28;82579;-90
2021/08/18 00:02:24;;;;;;;;;;;18.50;81.00;18.60;100019.00;;;;343364;28;91765;-91
2021/08/18 00:02:36;;;;;;;;;;;18.50;80.80;18.60;100017.00;;;;344833;28;83469;-91
2021/08/18 00:02:48;;;;;;;;;;;18.50;80.60;18.60;100019.00;;;;345355;28;90757;-90
2021/08/18 00:03:02;;;;;;;;;;;18.50;80.70;18.60;100022.00;;;;344696;28;83470;-90
2021/08/18 00:03:14;;;;;;;;;;;18.50;80.80;18.60;100021.00;;;;341694;28;90386;-91
2021/08/18 00:03:28;;;;;;;;;;;18.50;80.90;18.60;100020.00;;;;341913;28;83481;-92
2021/08/18 00:03:40;;;;;;;;;;;18.50;80.90;18.60;100016.00;;;;345589;28;89519;-90
2021/08/18 00:03:52;;;;;;;;;;;18.50;81.00;18.70;100018.00;;;;344826;28;83395;-90
2021/08/18 00:04:04;;;;;;;;;;;18.50;80.80;18.70;100014.00;;;;342811;28;92995;-90
2021/08/18 00:04:16;;;;;;;;;;;18.50;80.70;18.70;100023.00;;;;347582;28;83350;-90
2021/08/18 00:04:28;;;;;;;;;;;18.50;80.90;18.60;100020.00;;;;344231;28;91952;-91
2021/08/18 00:04:39;;;;;;;;;;;18.50;80.90;18.60;100019.00;;;;344822;28;83508;-90
2021/08/18 00:04:52;;;;;;;;;;;18.50;80.80;18.60;100025.00;;;;342536;28;91761;-91
2021/08/18 00:05:06;;;;;;;;;;;18.60;80.70;18.60;100019.00;;;;345789;28;83528;-90
2021/08/18 00:05:17;;;;;;;;;;;18.60;80.60;18.60;100023.00;;;;342881;28;91601;-92
2021/08/18 00:05:29;;;;;;;;;;;18.50;81.00;18.60;100019.00;;;;342078;28;82618;-90
2021/08/18 00:05:42;;;;;;;;;;;18.50;80.70;18.60;100017.00;;;;341656;28;91726;-91
2021/08/18 00:05:53;;;;;;;;;;;18.50;80.50;18.60;100022.00;;;;345146;28;83389;-90
2021/08/18 00:06:05;;;;;;;;;;;18.50;80.90;18.60;100021.00;;;;345652;28;90552;-90
2021/08/18 00:06:17;;;;;;;;;;;18.50;81.20;18.50;100013.00;;;;346237;28;83308;-92
2021/08/18 00:06:29;;;;;;;;;;;18.50;80.60;18.60;100024.00;;;;345476;28;90661;-91
2021/08/18 00:06:41;;;;;;;;;;;18.60;80.70;18.50;100016.00;;;;344605;28;82584;-92
2021/08/18 00:06:52;;;;;;;;;;;18.50;80.60;18.50;100018.00;;;;345703;28;90388;-91
2021/08/18 00:07:04;;;;;;;;;;;18.50;80.50;18.60;100026.00;;;;346291;28;82479;-90
2021/08/18 00:07:16;;;;;;;;;;;18.50;80.40;18.60;100019.00;;;;344421;28;91504;-91
2021/08/18 00:07:29;;;;;;;;;;;18.50;80.50;18.60;100020.00;;;;344879;28;83481;-90
2021/08/18 00:07:41;;;;;;;;;;;18.50;80.60;18.60;100016.00;;;;344423;28;90807;-90
2021/08/18 00:07:53;;;;;;;;;;;18.50;80.70;18.60;100011.00;;;;346358;28;83746;-90
2021/08/18 00:08:06;;;;;;;;;;;18.50;80.70;18.60;100015.00;;;;344250;28;91437;-91
2021/08/18 00:08:18;;;;;;;;;;;18.50;80.80;18.60;100014.00;;;;343621;28;83866;-90
2021/08/18 00:08:30;;;;;;;;;;;18.50;80.70;18.60;100018.00;;;;341628;28;91455;-91
2021/08/18 00:08:42;;;;;;;;;;;18.50;80.90;18.60;100015.00;;;;340667;28;83459;-90
2021/08/18 00:08:54;;;;;;;;;;;18.50;80.90;18.50;100014.00;;;;345228;28;92062;-90
2021/08/18 00:09:06;;;;;;;;;;;18.50;80.90;18.50;100012.00;;;;344496;28;83469;-90
2021/08/18 00:09:18;;;;;;;;;;;18.50;81.60;18.60;100014.00;;;;344381;28;90517;-91
2021/08/18 00:09:30;;;;;;;;;;;18.50;80.90;18.60;100018.00;;;;343301;28;83452;-90
2021/08/18 00:09:42;;;;;;;;;;;18.50;80.90;18.60;100011.00;;;;343018;28;91951;-90
2021/08/18 00:09:54;;;;;;;;;;;18.50;80.90;18.60;100022.00;;;;344538;28;83485;-93
2021/08/18 00:10:10;;;;;;;;;;;18.50;80.90;18.60;100017.00;;;;344205;28;91544;-91
2021/08/18 00:10:23;;;;;;;;;;;18.50;81.00;18.60;100019.00;;;;343445;28;83424;-91
2021/08/18 00:10:35;;;;;;;;;;;18.50;80.90;18.50;100011.00;;;;342903;28;92215;-91
2021/08/18 00:10:47;;;;;;;;;;;18.50;80.90;18.50;100017.00;;;;346029;28;83410;-91
2021/08/18 00:10:59;;;;;;;;;;;18.50;80.90;18.50;100008.00;;;;341118;28;91562;-90
2021/08/18 00:11:11;;;;;;;;;;;18.50;80.80;18.50;100015.00;;;;341534;28;83582;-90
2021/08/18 00:11:22;;;;;;;;;;;18.50;81.50;18.60;100016.00;;;;342008;28;90908;-90
2021/08/18 00:11:34;;;;;;;;;;;18.50;81.10;18.60;100012.00;;;;344768;28;83505;-90
2021/08/18 00:11:46;;;;;;;;;;;18.50;81.10;18.60;100015.00;;;;344347;28;91782;-91
2021/08/18 00:11:58;;;;;;;;;;;18.50;81.00;18.50;100003.00;;;;344956;28;83511;-90
2021/08/18 00:12:10;;;;;;;;;;;18.50;81.00;18.50;100013.00;;;;344268;28;92680;-90
2021/08/18 00:12:22;;;;;;;;;;;18.50;80.90;18.50;100018.00;;;;343079;28;83029;-91
2021/08/18 00:12:34;;;;;;;;;;;18.50;81.00;18.50;100022.00;;;;344131;28;89598;-91
2021/08/18 00:12:46;;;;;;;;;;;18.50;81.10;18.50;100008.00;;;;343415;28;82484;-90
2021/08/18 00:13:02;;;;;;;;;;;18.50;81.20;18.50;100011.00;;;;343072;28;91585;-90
2021/08/18 00:13:14;;;;;;;;;;;18.50;81.10;18.50;100012.00;;;;344715;28;83451;-93
2021/08/18 00:13:26;;;;;;;;;;;18.40;80.90;18.50;100012.00;;;;344396;28;91455;-90
2021/08/18 00:13:38;;;;;;;;;;;18.40;81.00;18.50;100018.00;;;;346187;28;83532;-90
2021/08/18 00:13:50;;;;;;;;;;;18.40;81.10;18.50;100017.00;;;;342689;28;90772;-91
2021/08/18 00:14:01;;;;;;;;;;;18.40;81.30;18.50;100015.00;;;;344188;28;82871;-90
2021/08/18 00:14:13;;;;;;;;;;;18.40;81.40;18.50;100015.00;;;;341554;28;92340;-91
2021/08/18 00:14:25;;;;;;;;;;;18.40;81.30;18.50;100007.00;;;;344865;28;82653;-91
2021/08/18 00:14:37;;;;;;;;;;;18.40;81.30;18.50;100020.00;;;;343881;28;92091;-90
2021/08/18 00:14:50;;;;;;;;;;;18.50;81.30;18.50;100017.00;;;;346104;28;83533;-90
2021/08/18 00:15:04;;;;;;;;;;;18.40;81.20;18.50;100011.00;;;;345808;28;90482;-90
2021/08/18 00:15:16;;;;;;;;;;;18.40;81.20;18.60;100014.00;;;;343372;28;83467;-91
2021/08/18 00:15:28;;;;;;;;;;;18.40;81.30;18.50;100011.00;;;;345676;28;90624;-90
2021/08/18 00:15:40;;;;;;;;;;;18.40;81.10;18.50;100009.00;;;;344710;28;83485;-91
2021/08/18 00:15:52;;;;;;;;;;;18.40;81.00;18.50;100008.00;;;;343053;28;91056;-90
2021/08/18 00:16:04;;;;;;;;;;;18.40;81.10;18.50;100013.00;;;;344733;28;82491;-91
2021/08/18 00:16:16;;;;;;;;;;;18.40;81.10;18.50;100013.00;;;;341592;28;92450;-91
2021/08/18 00:16:28;;;;;;;;;;;18.40;81.30;18.60;100014.00;;;;343371;28;83507;-91
2021/08/18 00:16:40;;;;;;;;;;;18.40;81.30;18.60;100017.00;;;;345701;28;90799;-90
2021/08/18 00:16:52;;;;;;;;;;;18.40;81.30;18.60;100016.00;;;;345289;28;83497;-92
2021/08/18 00:17:04;;;;;;;;;;;18.40;81.30;18.60;100017.00;;;;342773;28;90616;-90
2021/08/18 00:17:15;;;;;;;;;;;18.40;81.20;18.60;100015.00;;;;342070;28;83433;-91
2021/08/18 00:17:27;;;;;;;;;;;18.50;81.20;18.50;100015.00;;;;346361;27;91406;-90
2021/08/18 00:17:39;;;;;;;;;;;18.40;81.30;18.50;100016.00;;;;343427;28;82592;-90
2021/08/18 00:17:51;;;;;;;;;;;18.40;81.10;18.50;100014.00;;;;344495;28;91904;-90
2021/08/18 00:18:03;;;;;;;;;;;18.40;80.90;18.50;100018.00;;;;343437;28;83431;-90
2021/08/18 00:18:18;;;;;;;;;;;18.40;81.00;18.40;100008.00;;;;341615;28;90715;-90
2021/08/18 00:18:30;;;;;;;;;;;18.40;81.10;18.50;100016.00;;;;340809;28;83357;-91
2021/08/18 00:18:42;;;;;;;;;;;18.40;81.10;18.40;100012.00;;;;341589;28;91176;-91
2021/08/18 00:18:53;;;;;;;;;;;18.40;81.10;18.50;100015.00;;;;344935;28;83312;-91
2021/08/18 00:19:05;;;;;;;;;;;18.40;81.10;18.50;100017.00;;;;343118;28;90481;-91
2021/08/18 00:19:17;;;;;;;;;;;18.40;81.10;18.50;100015.00;;;;344776;28;83363;-91
2021/08/18 00:19:29;;;;;;;;;;;18.40;81.10;18.50;100014.00;;;;341673;28;91137;-90
2021/08/18 00:19:41;;;;;;;;;;;18.40;81.10;18.50;100009.00;;;;343500;28;82527;-90
2021/08/18 00:19:53;;;;;;;;;;;18.40;81.10;18.50;100017.00;;;;341919;28;91179;-90
2021/08/18 00:20:05;;;;;;;;;;;18.40;81.20;18.50;100017.00;;;;344329;28;82537;-91
2021/08/18 00:20:17;;;;;;;;;;;18.40;81.20;18.50;100018.00;;;;341557;28;91773;-90
2021/08/18 00:20:31;;;;;;;;;;;18.40;81.20;18.50;100013.00;;;;340836;28;83373;-90
2021/08/18 00:20:43;;;;;;;;;;;18.40;81.20;18.50;100011.00;;;;342903;28;91866;-91
2021/08/18 00:20:55;;;;;;;;;;;18.40;81.30;18.50;100015.00;;;;342608;28;83385;-91
2021/08/18 00:21:07;;;;;;;;;;;18.40;81.20;18.50;100009.00;;;;341642;28;91937;-91
2021/08/18 00:21:22;;;;;;;;;;;18.40;81.30;18.50;100009.00;;;;344484;28;83531;-90
2021/08/18 00:21:34;;;;;;;;;;;18.40;81.10;18.50;100008.00;;;;344160;28;90513;-91
2021/08/18 00:21:46;;;;;;;;;;;18.50;81.20;18.50;100011.00;;;;343359;28;83401;-91
2021/08/18 00:21:58;;;;;;;;;;;18.40;81.00;18.40;100007.00;;;;341532;28;91757;-90
2021/08/18 00:22:10;;;;;;;;;;;18.40;81.10;18.40;100009.00;;;;344846;28;82469;-90
2021/08/18 00:22:22;;;;;;;;;;;18.40;81.00;18.50;100015.00;;;;345565;28;91535;-91
2021/08/18 00:22:34;;;;;;;;;;;18.40;81.00;18.50;100017.00;;;;344821;28;83377;-92
2021/08/18 00:22:46;;;;;;;;;;;18.40;81.00;18.50;100019.00;;;;342783;28;90518;-91
2021/08/18 00:22:58;;;;;;;;;;;18.40;81.00;18.50;100012.00;;;;344434;28;83513;-91
2021/08/18 00:23:10;;;;;;;;;;;18.40;81.10;18.40;100017.00;;;;344313;28;90522;-90
2021/08/18 00:23:21;;;;;;;;;;;18.40;81.10;18.40;100018.00;;;;344730;28;83477;-91
2021/08/18 00:23:34;;;;;;;;;;;18.40;81.20;18.50;100015.00;;;;343026;28;91088;-91
2021/08/18 00:23:45;;;;;;;;;;;18.40;81.20;18.50;100010.00;;;;343226;28;83442;-90
2021/08/18 00:23:57;;;;;;;;;;;18.40;81.20;18.50;100011.00;;;;344338;28;91234;-90
2021/08/18 00:24:09;;;;;;;;;;;18.40;81.20;18.50;100014.00;;;;342068;28;83570;-90
2021/08/18 00:24:21;;;;;;;;;;;18.40;81.10;18.50;100010.00;;;;344317;28;91256;-90
2021/08/18 00:24:33;;;;;;;;;;;18.40;81.00;18.50;100016.00;;;;344831;28;83374;-91
2021/08/18 00:24:44;;;;;;;;;;;18.40;81.10;18.50;100016.00;;;;342887;28;92325;-90
2021/08/18 00:24:56;;;;;;;;;;;18.40;81.10;18.40;100008.00;;;;343461;28;82458;-90
2021/08/18 00:25:09;;;;;;;;;;;18.40;81.20;18.40;100015.00;;;;341663;28;91582;-90
2021/08/18 00:25:20;;;;;;;;;;;18.40;81.10;18.40;100011.00;;;;341966;28;83442;-90
2021/08/18 00:25:33;;;;;;;;;;;18.40;81.00;18.40;100013.00;;;;344438;28;91650;-90
2021/08/18 00:25:45;;;;;;;;;;;18.40;81.00;18.50;100015.00;;;;343359;28;84083;-91
2021/08/18 00:25:57;;;;;;;;;;;18.40;81.10;18.50;100014.00;;;;343763;28;91799;-91
2021/08/18 00:26:08;;;;;;;;;;;18.40;81.20;18.50;100012.00;;;;343301;28;83454;-91
2021/08/18 00:26:30;;;;;;;;;;;18.40;81.20;18.50;100009.00;;;;344426;28;91749;-91
2021/08/18 00:26:42;;;;;;;;;;;18.40;81.20;18.40;100011.00;;;;343179;28;82518;-91
2021/08/18 00:26:54;;;;;;;;;;;18.40;81.30;18.40;100011.00;;;;343649;28;91427;-91
2021/08/18 00:27:21;;;;;;;;;;;18.40;81.40;18.40;100018.00;;;;344678;28;82535;-90
2021/08/18 00:27:33;;;;;;;;;;;18.30;81.40;18.40;100011.00;;;;344392;28;91728;-90
2021/08/18 00:27:45;;;;;;;;;;;18.30;81.30;18.40;100012.00;;;;343352;28;83384;-90
2021/08/18 00:27:57;;;;;;;;;;;18.30;81.30;18.30;100013.00;;;;341620;28;91606;-90
2021/08/18 00:28:09;;;;;;;;;;;18.30;81.50;18.40;100010.00;;;;344844;28;83435;-90
2021/08/18 00:28:21;;;;;;;;;;;18.30;81.50;18.40;100003.00;;;;345677;28;91529;-90
2021/08/18 00:28:33;;;;;;;;;;;18.30;81.60;18.40;100012.00;;;;346067;28;83464;-90
2021/08/18 00:28:45;;;;;;;;;;;18.30;81.50;18.40;100012.00;;;;344171;28;92886;-90
2021/08/18 00:28:56;;;;;;;;;;;18.30;81.50;18.30;100014.00;;;;342896;28;83597;-90
2021/08/18 00:29:08;;;;;;;;;;;18.30;81.40;18.30;100016.00;;;;343656;28;91615;-90
2021/08/18 00:29:20;;;;;;;;;;;18.30;81.40;18.40;100010.00;;;;343394;28;82583;-90
2021/08/18 00:29:32;;;;;;;;;;;18.30;81.40;18.40;100010.00;;;;341602;28;92172;-90
2021/08/18 00:29:44;;;;;;;;;;;18.30;81.40;18.40;100012.00;;;;344763;28;82476;-91
2021/08/18 00:29:56;;;;;;;;;;;18.30;81.60;18.40;100015.00;;;;343618;28;90889;-91
2021/08/18 00:30:08;;;;;;;;;;;18.30;81.60;18.40;100007.00;;;;343373;28;83541;-91
2021/08/18 00:30:20;;;;;;;;;;;18.30;81.60;18.40;100013.00;;;;341633;28;90657;-90
2021/08/18 00:30:32;;;;;;;;;;;18.30;81.60;18.40;100012.00;;;;343328;28;83377;-91
2021/08/18 00:30:43;;;;;;;;;;;18.30;81.60;18.40;100011.00;;;;343972;28;93282;-90
2021/08/18 00:30:58;;;;;;;;;;;18.30;81.60;18.50;100016.00;;;;343234;28;83507;-91
2021/08/18 00:31:11;;;;;;;;;;;18.30;82.20;18.40;100017.00;;;;342958;28;91165;-90
2021/08/18 00:31:23;;;;;;;;;;;18.30;81.60;18.40;100018.00;;;;340586;28;83299;-91
2021/08/18 00:31:35;;;;;;;;;;;18.30;81.70;18.40;100010.00;;;;345714;28;92069;-89
2021/08/18 00:31:47;;;;;;;;;;;18.30;81.70;18.40;100015.00;;;;344700;28;83203;-90
2021/08/18 00:31:59;;;;;;;;;;;18.30;81.60;18.40;100012.00;;;;345032;28;91537;-91
2021/08/18 00:32:11;;;;;;;;;;;18.30;81.60;18.30;100018.00;;;;343598;28;82634;-90
2021/08/18 00:32:24;;;;;;;;;;;18.30;81.60;18.40;100011.00;;;;342047;28;91564;-91
2021/08/18 00:32:36;;;;;;;;;;;18.30;81.80;18.40;100012.00;;;;344826;28;83415;-90
2021/08/18 00:32:48;;;;;;;;;;;18.30;81.60;18.40;100013.00;;;;342846;28;91417;-90
2021/08/18 00:33:01;;;;;;;;;;;18.30;81.60;18.40;100011.00;;;;343365;28;82577;-90
2021/08/18 00:33:12;;;;;;;;;;;18.30;81.50;18.40;100018.00;;;;343016;28;91887;-91
2021/08/18 00:33:24;;;;;;;;;;;18.30;81.50;18.40;100014.00;;;;340270;28;83394;-90
2021/08/18 00:33:36;;;;;;;;;;;18.30;81.50;18.40;100008.00;;;;340398;28;90186;-90
2021/08/18 00:33:48;;;;;;;;;;;18.30;81.70;18.40;100015.00;;;;340765;28;82597;-90
2021/08/18 00:34:00;;;;;;;;;;;18.30;81.70;18.40;100015.00;;;;342908;28;91211;-91
2021/08/18 00:34:12;;;;;;;;;;;18.30;81.70;18.40;100007.00;;;;344757;28;83404;-91
2021/08/18 00:34:24;;;;;;;;;;;18.30;81.80;18.40;100013.00;;;;341521;28;92141;-90
2021/08/18 00:34:35;;;;;;;;;;;18.30;81.70;18.40;100010.00;;;;344668;28;83460;-91
2021/08/18 00:34:47;;;;;;;;;;;18.30;81.70;18.40;100013.00;;;;341515;28;92996;-92
2021/08/18 00:34:59;;;;;;;;;;;18.30;81.80;18.40;100005.00;;;;342929;28;83533;-90
2021/08/18 00:35:11;;;;;;;;;;;18.30;81.70;18.40;100008.00;;;;343058;28;91990;-91
2021/08/18 00:35:23;;;;;;;;;;;18.30;81.70;18.40;100011.00;;;;345175;28;83546;-90
2021/08/18 00:35:35;;;;;;;;;;;18.30;81.90;18.40;100012.00;;;;341578;28;91823;-90
2021/08/18 00:35:47;;;;;;;;;;;18.30;81.80;18.30;100012.00;;;;343394;28;83393;-90
2021/08/18 00:35:59;;;;;;;;;;;18.30;81.80;18.40;100003.00;;;;341827;28;90743;-90
2021/08/18 00:36:10;;;;;;;;;;;18.30;82.10;18.40;100010.00;;;;344188;28;83603;-91
2021/08/18 00:36:22;;;;;;;;;;;18.30;82.00;18.40;100012.00;;;;341642;28;91584;-89
2021/08/18 00:36:34;;;;;;;;;;;18.30;81.80;18.40;100011.00;;;;342054;28;83468;-91
2021/08/18 00:36:46;;;;;;;;;;;18.30;81.80;18.40;100010.00;;;;345674;28;91311;-90
2021/08/18 00:36:58;;;;;;;;;;;18.30;81.80;18.40;100011.00;;;;343194;28;82580;-91
2021/08/18 00:37:10;;;;;;;;;;;18.30;81.90;18.40;100008.00;;;;344204;28;89726;-91
2021/08/18 00:37:22;;;;;;;;;;;18.30;81.90;18.40;100011.00;;;;344673;28;83418;-90
2021/08/18 00:37:34;;;;;;;;;;;18.30;81.90;18.40;100012.00;;;;345504;28;89122;-90
2021/08/18 00:37:46;;;;;;;;;;;18.30;81.80;18.40;100011.00;;;;344762;28;83431;-91
2021/08/18 00:37:58;;;;;;;;;;;18.30;81.90;18.40;100013.00;;;;342884;28;96280;-91
2021/08/18 00:38:10;;;;;;;;;;;18.30;81.80;18.30;100010.00;;;;342898;28;83577;-90
2021/08/18 00:38:22;;;;;;;;;;;18.30;81.80;18.40;100008.00;;;;343324;28;91775;-90
2021/08/18 00:38:34;;;;;;;;;;;18.30;81.80;18.40;100008.00;;;;347475;28;83417;-90
2021/08/18 00:38:46;;;;;;;;;;;18.30;81.70;18.40;100009.00;;;;344311;28;92359;-90
2021/08/18 00:38:58;;;;;;;;;;;18.30;81.80;18.40;100008.00;;;;344661;28;83468;-90
2021/08/18 00:39:10;;;;;;;;;;;18.30;81.90;18.40;100006.00;;;;345726;28;90587;-90
2021/08/18 00:39:21;;;;;;;;;;;18.30;81.80;18.30;100012.00;;;;343216;28;83488;-90
2021/08/18 00:39:33;;;;;;;;;;;18.30;81.80;18.40;100003.00;;;;342956;28;91421;-90
2021/08/18 00:39:45;;;;;;;;;;;18.30;81.80;18.30;100004.00;;;;346183;28;83531;-90
2021/08/18 00:39:57;;;;;;;;;;;18.30;81.70;18.30;100008.00;;;;344009;28;90694;-91
2021/08/18 00:40:10;;;;;;;;;;;18.30;81.80;18.30;100006.00;;;;346138;28;83382;-90
2021/08/18 00:40:21;;;;;;;;;;;18.30;81.80;18.30;100004.00;;;;345722;28;92211;-91
2021/08/18 00:40:33;;;;;;;;;;;18.30;81.70;18.30;100004.00;;;;344755;28;82633;-90
2021/08/18 00:40:45;;;;;;;;;;;18.30;81.70;18.20;100005.00;;;;345574;28;92845;-90
2021/08/18 00:40:57;;;;;;;;;;;18.30;81.80;18.30;100007.00;;;;341615;28;83486;-90
2021/08/18 00:41:09;;;;;;;;;;;18.20;81.50;18.20;100004.00;;;;341601;28;92090;-90
2021/08/18 00:41:21;;;;;;;;;;;18.20;81.60;18.30;100001.00;;;;345020;28;83521;-90
2021/08/18 00:41:33;;;;;;;;;;;18.20;81.60;18.30;100012.00;;;;343001;28;90484;-90
2021/08/18 00:41:45;;;;;;;;;;;18.20;81.70;18.30;100003.00;;;;344808;28;83406;-90
2021/08/18 00:41:57;;;;;;;;;;;18.20;81.90;18.20;100003.00;;;;343431;28;90649;-90
2021/08/18 00:42:09;;;;;;;;;;;18.20;81.90;18.20;100007.00;;;;343371;28;83589;-90
2021/08/18 00:42:21;;;;;;;;;;;18.20;81.80;18.20;100006.00;;;;344262;28;92248;-91
2021/08/18 00:42:33;;;;;;;;;;;18.20;81.80;18.30;100005.00;;;;344756;28;83369;-91
2021/08/18 00:42:45;;;;;;;;;;;18.20;81.90;18.30;100003.00;;;;341412;28;92910;-92
2021/08/18 00:42:57;;;;;;;;;;;18.20;82.00;18.30;100006.00;;;;341836;28;83387;-91
2021/08/18 00:43:09;;;;;;;;;;;18.20;82.00;18.30;100005.00;;;;341697;28;90353;-90
2021/08/18 00:43:20;;;;;;;;;;;18.20;81.90;18.30;100000.00;;;;342004;28;83511;-90
2021/08/18 00:43:32;;;;;;;;;;;18.20;82.00;18.30;100005.00;;;;342919;28;91336;-91
2021/08/18 00:43:44;;;;;;;;;;;18.20;81.90;18.30;100001.00;;;;343461;28;82472;-91
2021/08/18 00:43:56;;;;;;;;;;;18.20;81.80;18.30;100002.00;;;;343724;28;91530;-91
2021/08/18 00:44:08;;;;;;;;;;;18.20;81.90;18.30;100007.00;;;;344584;28;83820;-91
2021/08/18 00:44:20;;;;;;;;;;;18.20;82.00;18.30;100003.00;;;;344278;28;91525;-90
2021/08/18 00:44:32;;;;;;;;;;;18.20;82.00;18.30;99999.00;;;;346242;28;82385;-89
2021/08/18 00:44:44;;;;;;;;;;;18.20;81.90;18.30;100002.00;;;;342929;28;91277;-91
2021/08/18 00:44:56;;;;;;;;;;;18.20;81.90;18.30;100002.00;;;;342560;28;83838;-92
2021/08/18 00:45:09;;;;;;;;;;;18.20;82.00;18.30;100011.00;;;;344410;28;90175;-90
2021/08/18 00:45:21;;;;;;;;;;;18.20;82.00;18.30;100006.00;;;;343407;28;82541;-90
2021/08/18 00:45:33;;;;;;;;;;;18.20;81.90;18.30;100001.00;;;;342936;28;91036;-90
2021/08/18 00:45:45;;;;;;;;;;;18.20;81.90;18.20;99998.00;;;;344751;28;83381;-90
2021/08/18 00:45:57;;;;;;;;;;;18.20;82.00;18.20;100007.00;;;;342876;28;91897;-91
2021/08/18 00:46:09;;;;;;;;;;;18.20;82.00;18.20;100005.00;;;;344774;28;82524;-90
2021/08/18 00:46:21;;;;;;;;;;;18.20;82.10;18.20;100011.00;;;;342843;28;90408;-91
2021/08/18 00:46:49;;;;;;;;;;;18.20;82.10;18.30;100003.00;;;;343352;28;83365;-91
2021/08/18 00:47:01;;;;;;;;;;;18.20;82.20;18.30;100004.00;;;;342037;28;91079;-90
2021/08/18 00:47:12;;;;;;;;;;;18.20;82.10;18.30;99999.00;;;;343304;28;82662;-90
2021/08/18 00:47:24;;;;;;;;;;;18.20;82.10;18.20;100003.00;;;;343576;28;91794;-90
2021/08/18 00:47:46;;;;;;;;;;;18.20;82.10;18.30;99994.00;;;;344765;28;83397;-90
2021/08/18 00:47:58;;;;;;;;;;;18.20;82.10;18.30;99999.00;;;;343261;28;90576;-91
2021/08/18 00:48:14;;;;;;;;;;;18.20;82.20;18.30;99999.00;;;;343365;28;82513;-90
2021/08/18 00:48:26;;;;;;;;;;;18.20;82.10;18.30;100004.00;;;;342962;28;90476;-91
2021/08/18 00:48:38;;;;;;;;;;;18.20;82.10;18.30;99999.00;;;;347317;28;83429;-90
2021/08/18 00:48:50;;;;;;;;;;;18.20;82.10;18.30;99997.00;;;;341641;28;90513;-90
2021/08/18 00:49:01;;;;;;;;;;;18.20;82.20;18.30;100003.00;;;;343362;28;83412;-91
2021/08/18 00:49:13;;;;;;;;;;;18.20;82.10;18.20;100001.00;;;;342876;28;92100;-90
2021/08/18 00:49:28;;;;;;;;;;;18.20;82.10;18.30;99997.00;;;;346056;28;83449;-90
2021/08/18 00:49:40;;;;;;;;;;;18.20;82.10;18.30;100000.00;;;;344294;28;90257;-90
2021/08/18 00:49:52;;;;;;;;;;;18.20;82.20;18.30;100001.00;;;;341635;28;83455;-91
2021/08/18 00:50:05;;;;;;;;;;;18.20;82.30;18.30;100006.00;;;;345450;28;90632;-90
2021/08/18 00:50:19;;;;;;;;;;;18.20;82.20;18.10;100001.00;;;;343402;28;83162;-90
2021/08/18 00:50:31;;;;;;;;;;;18.10;82.10;18.10;99999.00;;;;340324;28;91696;-90
2021/08/18 00:50:43;;;;;;;;;;;18.10;82.00;18.10;100000.00;;;;344664;28;82589;-90
2021/08/18 00:50:54;;;;;;;;;;;18.10;82.10;18.10;99995.00;;;;344771;28;90544;-90
2021/08/18 00:51:06;;;;;;;;;;;18.10;82.20;18.20;100001.00;;;;343305;28;82596;-90
2021/08/18 00:51:18;;;;;;;;;;;18.10;82.30;18.20;99996.00;;;;344139;28;92264;-90
2021/08/18 00:51:30;;;;;;;;;;;18.10;82.40;18.20;100003.00;;;;343256;28;82543;-90
2021/08/18 00:51:42;;;;;;;;;;;18.10;82.50;18.20;99996.00;;;;343003;28;90942;-90
2021/08/18 00:51:54;;;;;;;;;;;18.10;82.50;18.20;100003.00;;;;344809;28;82463;-90
2021/08/18 00:52:06;;;;;;;;;;;18.10;82.40;18.10;99995.00;;;;344277;28;90304;-90
2021/08/18 00:52:34;;;;;;;;;;;18.10;82.40;18.20;100001.00;;;;346120;28;83359;-91
2021/08/18 00:52:46;;;;;;;;;;;18.10;82.30;18.20;99994.00;;;;344231;28;90559;-91
2021/08/18 00:52:58;;;;;;;;;;;18.10;82.40;18.10;100001.00;;;;343228;28;82652;-90
2021/08/18 00:53:10;;;;;;;;;;;18.10;82.50;18.20;99999.00;;;;342862;28;91604;-90
2021/08/18 00:53:22;;;;;;;;;;;18.10;82.50;18.10;99991.00;;;;344775;28;83592;-91
2021/08/18 00:53:34;;;;;;;;;;;18.10;82.40;18.20;99999.00;;;;344241;28;92468;-90
2021/08/18 00:53:46;;;;;;;;;;;18.10;82.50;18.10;99997.00;;;;345034;28;82801;-90
2021/08/18 00:53:58;;;;;;;;;;;18.10;82.30;18.10;99996.00;;;;341952;28;89782;-90
2021/08/18 00:54:10;;;;;;;;;;;18.10;82.30;18.10;99994.00;;;;341938;28;83645;-89
2021/08/18 00:54:23;;;;;;;;;;;18.10;82.30;18.10;99995.00;;;;343043;28;91888;-91
2021/08/18 00:54:35;;;;;;;;;;;18.10;82.30;18.00;99983.00;;;;344440;28;83495;-91
2021/08/18 00:54:46;;;;;;;;;;;18.10;82.40;18.10;99998.00;;;;342951;28;91179;-91
2021/08/18 00:54:58;;;;;;;;;;;18.10;82.30;18.10;99993.00;;;;343519;28;83428;-90
2021/08/18 00:55:14;;;;;;;;;;;18.10;82.40;18.00;99999.00;;;;344384;28;88806;-90
2021/08/18 00:55:26;;;;;;;;;;;18.10;82.60;18.10;99997.00;;;;342161;28;83530;-90
2021/08/18 00:55:39;;;;;;;;;;;18.00;82.40;18.10;99992.00;;;;343202;28;91025;-90
2021/08/18 00:55:51;;;;;;;;;;;18.00;82.40;18.10;99992.00;;;;343696;28;83415;-91
2021/08/18 00:56:03;;;;;;;;;;;18.00;82.40;18.10;99990.00;;;;343312;28;91508;-90
2021/08/18 00:56:15;;;;;;;;;;;18.00;82.50;18.10;99992.00;;;;346188;28;83585;-91
2021/08/18 00:56:27;;;;;;;;;;;18.00;82.50;18.10;99990.00;;;;344230;28;90787;-90
2021/08/18 00:56:39;;;;;;;;;;;18.00;82.70;18.10;100008.00;;;;344897;28;83465;-90
2021/08/18 00:56:51;;;;;;;;;;;18.00;82.70;18.10;99989.00;;;;347333;28;90706;-90
2021/08/18 00:57:06;;;;;;;;;;;18.00;82.60;18.10;99993.00;;;;343645;28;83413;-90
2021/08/18 00:57:20;;;;;;;;;;;18.00;82.60;18.10;99992.00;;;;341875;28;90520;-91
2021/08/18 00:57:33;;;;;;;;;;;18.00;82.80;18.10;99995.00;;;;345043;28;83351;-90
2021/08/18 00:57:46;;;;;;;;;;;18.00;82.70;18.10;99992.00;;;;341834;28;91004;-91
2021/08/18 00:57:59;;;;;;;;;;;18.00;82.60;18.10;99992.00;;;;342337;28;82576;-90
2021/08/18 00:58:11;;;;;;;;;;;18.00;82.70;18.10;99997.00;;;;342944;28;91176;-90
2021/08/18 00:58:23;;;;;;;;;;;18.00;82.70;18.10;99986.00;;;;343400;28;83519;-90
2021/08/18 00:58:35;;;;;;;;;;;18.00;82.70;18.10;99999.00;;;;344498;28;90567;-90
2021/08/18 00:58:48;;;;;;;;;;;18.00;83.40;18.10;99989.00;;;;343142;28;82497;-91
2021/08/18 00:59:07;;;;;;;;;;;18.00;82.80;18.10;99990.00;;;;344006;28;86877;-90
2021/08/18 00:59:21;;;;;;;;;;;18.00;82.80;18.00;100004.00;;;;344358;28;82512;-91
2021/08/18 00:59:38;;;;;;;;;;;18.00;82.70;18.10;99990.00;;;;343661;28;89721;-90
2021/08/18 00:59:52;;;;;;;;;;;18.00;82.60;18.10;99992.00;;;;347394;28;83507;-90
2021/08/18 01:00:08;;;;;;;;;;;18.00;82.70;18.10;99987.00;;;;342750;28;92553;-92
2021/08/18 01:00:21;;;;;;;;;;;18.00;82.70;18.10;99984.00;;;;343560;28;83469;-91
2021/08/18 01:00:33;;;;;;;;;;;18.00;82.60;18.00;99992.00;;;;341890;28;88051;-90
2021/08/18 01:00:45;;;;;;;;;;;18.00;82.50;18.00;99996.00;;;;344928;28;82543;-92
2021/08/18 01:00:57;;;;;;;;;;;18.00;82.70;18.00;99988.00;;;;343349;28;87594;-90